sensor_id;sensor_type;location;lat;lon;timestamp;P1;durP1;ratioP1;P2;durP2;ratioP2
36189;SDS011;22232;50.914;13.858;2023-03-21T00:01:50;24.80;;;15.07;;
36189;SDS011;22232;50.914;13.858;2023-03-21T00:04:20;26.67;;;14.85;;
36189;SDS011;22232;50.914;13.858;2023-03-21T00:06:48;29.08;;;15.65;;
36189;SDS011;22232;50.914;13.858;2023-03-21T00:09:16;26.60;;;14.30;;
36189;SDS011;22232;50.914;13.858;2023-03-21T00:11:44;30.10;;;15.57;;
36189;SDS011;22232;50.914;13.858;2023-03-21T00:14:12;29.48;;;15.05;;
36189;SDS011;22232;50.914;13.858;2023-03-21T00:16:45;27.58;;;14.60;;
36189;SDS011;22232;50.914;13.858;2023-03-21T00:19:17;27.38;;;14.02;;
36189;SDS011;22232;50.914;13.858;2023-03-21T00:21:47;26.58;;;13.93;;
36189;SDS011;22232;50.914;13.858;2023-03-21T00:24:34;25.90;;;13.32;;
36189;SDS011;22232;50.914;13.858;2023-03-21T00:27:02;24.85;;;12.88;;
36189;SDS011;22232;50.914;13.858;2023-03-21T00:29:50;26.58;;;14.23;;
36189;SDS011;22232;50.914;13.858;2023-03-21T00:32:18;21.85;;;12.75;;
36189;SDS011;22232;50.914;13.858;2023-03-21T00:34:47;21.30;;;12.15;;
36189;SDS011;22232;50.914;13.858;2023-03-21T00:37:36;22.83;;;12.70;;
36189;SDS011;22232;50.914;13.858;2023-03-21T00:40:04;23.67;;;12.95;;
36189;SDS011;22232;50.914;13.858;2023-03-21T00:42:49;24.95;;;13.32;;
36189;SDS011;22232;50.914;13.858;2023-03-21T00:45:17;24.77;;;13.02;;
36189;SDS011;22232;50.914;13.858;2023-03-21T00:47:45;22.67;;;13.48;;
36189;SDS011;22232;50.914;13.858;2023-03-21T00:50:13;25.55;;;13.63;;
36189;SDS011;22232;50.914;13.858;2023-03-21T00:52:40;24.00;;;13.35;;
36189;SDS011;22232;50.914;13.858;2023-03-21T00:55:15;26.02;;;13.90;;
36189;SDS011;22232;50.914;13.858;2023-03-21T00:57:46;26.88;;;13.55;;
36189;SDS011;22232;50.914;13.858;2023-03-21T01:00:25;25.38;;;13.90;;
36189;SDS011;22232;50.914;13.858;2023-03-21T01:02:55;27.15;;;14.25;;
36189;SDS011;22232;50.914;13.858;2023-03-21T01:05:43;25.75;;;13.75;;
36189;SDS011;22232;50.914;13.858;2023-03-21T01:08:28;28.92;;;13.93;;
36189;SDS011;22232;50.914;13.858;2023-03-21T01:11:18;29.05;;;14.80;;
36189;SDS011;22232;50.914;13.858;2023-03-21T01:13:47;30.90;;;15.23;;
36189;SDS011;22232;50.914;13.858;2023-03-21T01:16:35;25.58;;;14.35;;
36189;SDS011;22232;50.914;13.858;2023-03-21T01:19:05;32.83;;;16.02;;
36189;SDS011;22232;50.914;13.858;2023-03-21T01:21:41;30.08;;;16.02;;
36189;SDS011;22232;50.914;13.858;2023-03-21T01:24:09;32.63;;;16.17;;
36189;SDS011;22232;50.914;13.858;2023-03-21T01:26:37;32.80;;;17.48;;
36189;SDS011;22232;50.914;13.858;2023-03-21T01:29:04;33.67;;;17.20;;
36189;SDS011;22232;50.914;13.858;2023-03-21T01:31:32;36.05;;;17.65;;
36189;SDS011;22232;50.914;13.858;2023-03-21T01:34:00;34.72;;;16.70;;
36189;SDS011;22232;50.914;13.858;2023-03-21T01:36:28;33.65;;;16.70;;
36189;SDS011;22232;50.914;13.858;2023-03-21T01:39:01;30.73;;;15.57;;
36189;SDS011;22232;50.914;13.858;2023-03-21T01:41:32;33.17;;;15.80;;
36189;SDS011;22232;50.914;13.858;2023-03-21T01:44:29;32.72;;;16.00;;
36189;SDS011;22232;50.914;13.858;2023-03-21T01:46:57;30.95;;;16.33;;
36189;SDS011;22232;50.914;13.858;2023-03-21T01:49:47;34.45;;;16.60;;
36189;SDS011;22232;50.914;13.858;2023-03-21T01:52:35;33.50;;;16.77;;
36189;SDS011;22232;50.914;13.858;2023-03-21T01:55:15;34.42;;;16.83;;
36189;SDS011;22232;50.914;13.858;2023-03-21T01:58:04;35.92;;;17.77;;
36189;SDS011;22232;50.914;13.858;2023-03-21T02:00:58;34.78;;;16.33;;
36189;SDS011;22232;50.914;13.858;2023-03-21T02:03:35;35.53;;;16.90;;
36189;SDS011;22232;50.914;13.858;2023-03-21T02:06:37;37.90;;;19.23;;
36189;SDS011;22232;50.914;13.858;2023-03-21T02:09:45;52.38;;;23.77;;
36189;SDS011;22232;50.914;13.858;2023-03-21T02:12:18;50.03;;;25.33;;
36189;SDS011;22232;50.914;13.858;2023-03-21T02:14:47;49.80;;;25.38;;
36189;SDS011;22232;50.914;13.858;2023-03-21T02:31:43;48.95;;;23.25;;
36189;SDS011;22232;50.914;13.858;2023-03-21T02:40:15;42.70;;;21.75;;
36189;SDS011;22232;50.914;13.858;2023-03-21T02:43:03;42.08;;;21.27;;
36189;SDS011;22232;50.914;13.858;2023-03-21T02:48:35;35.67;;;20.02;;
36189;SDS011;22232;50.914;13.858;2023-03-21T02:51:18;38.05;;;18.98;;
36189;SDS011;22232;50.914;13.858;2023-03-21T02:53:54;37.78;;;19.42;;
36189;SDS011;22232;50.914;13.858;2023-03-21T02:56:47;32.97;;;17.50;;
36189;SDS011;22232;50.914;13.858;2023-03-21T02:59:17;35.85;;;17.45;;
36189;SDS011;22232;50.914;13.858;2023-03-21T03:01:49;33.10;;;17.15;;
36189;SDS011;22232;50.914;13.858;2023-03-21T03:04:19;31.20;;;16.05;;
36189;SDS011;22232;50.914;13.858;2023-03-21T03:20:19;32.65;;;15.15;;
36189;SDS011;22232;50.914;13.858;2023-03-21T03:25:46;30.08;;;14.85;;
36189;SDS011;22232;50.914;13.858;2023-03-21T03:28:41;29.65;;;15.18;;
36189;SDS011;22232;50.914;13.858;2023-03-21T03:31:18;31.83;;;14.93;;
36189;SDS011;22232;50.914;13.858;2023-03-21T03:33:59;26.05;;;14.48;;
36189;SDS011;22232;50.914;13.858;2023-03-21T03:36:34;25.67;;;13.68;;
36189;SDS011;22232;50.914;13.858;2023-03-21T03:39:11;24.75;;;13.43;;
36189;SDS011;22232;50.914;13.858;2023-03-21T03:41:50;23.60;;;12.45;;
36189;SDS011;22232;50.914;13.858;2023-03-21T03:44:45;27.45;;;13.63;;
36189;SDS011;22232;50.914;13.858;2023-03-21T03:47:24;24.35;;;13.57;;
36189;SDS011;22232;50.914;13.858;2023-03-21T03:50:25;27.02;;;13.15;;
36189;SDS011;22232;50.914;13.858;2023-03-21T03:53:01;23.13;;;12.30;;
36189;SDS011;22232;50.914;13.858;2023-03-21T03:55:44;22.00;;;11.40;;
36189;SDS011;22232;50.914;13.858;2023-03-21T03:58:16;23.52;;;12.77;;
36189;SDS011;22232;50.914;13.858;2023-03-21T04:00:53;21.30;;;11.55;;
36189;SDS011;22232;50.914;13.858;2023-03-21T04:03:21;20.15;;;11.20;;
36189;SDS011;22232;50.914;13.858;2023-03-21T04:05:51;20.90;;;10.85;;
36189;SDS011;22232;50.914;13.858;2023-03-21T04:08:20;19.42;;;10.98;;
36189;SDS011;22232;50.914;13.858;2023-03-21T04:10:53;20.52;;;11.65;;
36189;SDS011;22232;50.914;13.858;2023-03-21T04:13:21;19.30;;;10.48;;
36189;SDS011;22232;50.914;13.858;2023-03-21T04:16:01;21.02;;;11.00;;
36189;SDS011;22232;50.914;13.858;2023-03-21T04:18:29;21.17;;;11.90;;
36189;SDS011;22232;50.914;13.858;2023-03-21T04:20:58;25.35;;;13.27;;
36189;SDS011;22232;50.914;13.858;2023-03-21T04:23:28;25.08;;;12.50;;
36189;SDS011;22232;50.914;13.858;2023-03-21T04:25:56;22.33;;;11.68;;
36189;SDS011;22232;50.914;13.858;2023-03-21T04:28:35;20.63;;;10.75;;
36189;SDS011;22232;50.914;13.858;2023-03-21T04:31:23;16.83;;;10.15;;
36189;SDS011;22232;50.914;13.858;2023-03-21T04:34:04;21.02;;;11.48;;
36189;SDS011;22232;50.914;13.858;2023-03-21T04:36:39;23.38;;;11.63;;
36189;SDS011;22232;50.914;13.858;2023-03-21T04:39:13;22.80;;;12.18;;
36189;SDS011;22232;50.914;13.858;2023-03-21T04:41:45;19.85;;;11.07;;
36189;SDS011;22232;50.914;13.858;2023-03-21T04:44:13;20.80;;;11.48;;
36189;SDS011;22232;50.914;13.858;2023-03-21T04:46:43;21.90;;;12.27;;
36189;SDS011;22232;50.914;13.858;2023-03-21T04:49:11;20.98;;;11.77;;
36189;SDS011;22232;50.914;13.858;2023-03-21T04:51:41;22.38;;;12.07;;
36189;SDS011;22232;50.914;13.858;2023-03-21T04:54:15;20.35;;;11.65;;
36189;SDS011;22232;50.914;13.858;2023-03-21T04:56:43;21.13;;;11.43;;
36189;SDS011;22232;50.914;13.858;2023-03-21T04:59:12;16.92;;;9.68;;
36189;SDS011;22232;50.914;13.858;2023-03-21T05:01:41;18.67;;;10.23;;
36189;SDS011;22232;50.914;13.858;2023-03-21T05:04:11;19.83;;;10.15;;
36189;SDS011;22232;50.914;13.858;2023-03-21T05:06:40;17.85;;;10.07;;
36189;SDS011;22232;50.914;13.858;2023-03-21T05:09:09;19.52;;;9.57;;
36189;SDS011;22232;50.914;13.858;2023-03-21T05:11:38;17.17;;;9.50;;
36189;SDS011;22232;50.914;13.858;2023-03-21T05:14:08;16.25;;;9.20;;
36189;SDS011;22232;50.914;13.858;2023-03-21T05:16:38;19.27;;;9.93;;
36189;SDS011;22232;50.914;13.858;2023-03-21T05:19:11;22.02;;;9.95;;
36189;SDS011;22232;50.914;13.858;2023-03-21T05:21:41;19.50;;;10.15;;
36189;SDS011;22232;50.914;13.858;2023-03-21T05:24:16;19.35;;;9.80;;
36189;SDS011;22232;50.914;13.858;2023-03-21T05:26:46;18.33;;;9.18;;
36189;SDS011;22232;50.914;13.858;2023-03-21T05:29:22;16.52;;;9.38;;
36189;SDS011;22232;50.914;13.858;2023-03-21T05:32:15;18.40;;;9.00;;
36189;SDS011;22232;50.914;13.858;2023-03-21T05:34:44;19.33;;;8.88;;
36189;SDS011;22232;50.914;13.858;2023-03-21T05:37:11;18.15;;;8.73;;
36189;SDS011;22232;50.914;13.858;2023-03-21T05:39:46;14.32;;;7.82;;
36189;SDS011;22232;50.914;13.858;2023-03-21T05:42:21;17.35;;;8.82;;
36189;SDS011;22232;50.914;13.858;2023-03-21T05:44:49;19.63;;;9.13;;
36189;SDS011;22232;50.914;13.858;2023-03-21T05:47:21;16.27;;;8.95;;
36189;SDS011;22232;50.914;13.858;2023-03-21T05:49:51;17.95;;;9.55;;
36189;SDS011;22232;50.914;13.858;2023-03-21T05:52:20;15.35;;;9.32;;
36189;SDS011;22232;50.914;13.858;2023-03-21T05:54:48;17.02;;;8.07;;
36189;SDS011;22232;50.914;13.858;2023-03-21T05:57:19;17.23;;;8.43;;
36189;SDS011;22232;50.914;13.858;2023-03-21T06:00:08;16.92;;;9.63;;
36189;SDS011;22232;50.914;13.858;2023-03-21T06:02:42;16.80;;;8.32;;
36189;SDS011;22232;50.914;13.858;2023-03-21T06:05:36;14.52;;;8.07;;
36189;SDS011;22232;50.914;13.858;2023-03-21T06:08:09;14.57;;;8.03;;
36189;SDS011;22232;50.914;13.858;2023-03-21T06:10:39;17.20;;;9.13;;
36189;SDS011;22232;50.914;13.858;2023-03-21T06:13:07;13.30;;;7.72;;
36189;SDS011;22232;50.914;13.858;2023-03-21T06:15:35;16.63;;;8.52;;
36189;SDS011;22232;50.914;13.858;2023-03-21T06:18:09;17.13;;;8.52;;
36189;SDS011;22232;50.914;13.858;2023-03-21T06:23:55;15.07;;;7.75;;
36189;SDS011;22232;50.914;13.858;2023-03-21T06:26:22;14.82;;;8.30;;
36189;SDS011;22232;50.914;13.858;2023-03-21T06:28:52;15.85;;;7.75;;
36189;SDS011;22232;50.914;13.858;2023-03-21T06:31:20;15.90;;;8.88;;
36189;SDS011;22232;50.914;13.858;2023-03-21T06:33:59;13.35;;;8.02;;
36189;SDS011;22232;50.914;13.858;2023-03-21T06:36:26;14.68;;;7.65;;
36189;SDS011;22232;50.914;13.858;2023-03-21T06:38:54;16.40;;;9.00;;
36189;SDS011;22232;50.914;13.858;2023-03-21T06:41:22;18.42;;;8.73;;
36189;SDS011;22232;50.914;13.858;2023-03-21T06:43:57;15.20;;;8.23;;
36189;SDS011;22232;50.914;13.858;2023-03-21T06:46:26;14.43;;;7.95;;
36189;SDS011;22232;50.914;13.858;2023-03-21T06:48:54;15.48;;;8.50;;
36189;SDS011;22232;50.914;13.858;2023-03-21T06:51:22;16.33;;;7.95;;
36189;SDS011;22232;50.914;13.858;2023-03-21T06:54:01;14.55;;;8.75;;
36189;SDS011;22232;50.914;13.858;2023-03-21T06:56:40;11.40;;;7.57;;
36189;SDS011;22232;50.914;13.858;2023-03-21T06:59:10;16.53;;;7.83;;
36189;SDS011;22232;50.914;13.858;2023-03-21T07:02:04;18.50;;;8.57;;
36189;SDS011;22232;50.914;13.858;2023-03-21T07:04:38;15.20;;;7.97;;
36189;SDS011;22232;50.914;13.858;2023-03-21T07:07:11;12.70;;;8.10;;
36189;SDS011;22232;50.914;13.858;2023-03-21T07:09:39;12.02;;;7.90;;
36189;SDS011;22232;50.914;13.858;2023-03-21T07:12:07;13.25;;;7.32;;
36189;SDS011;22232;50.914;13.858;2023-03-21T07:15:01;12.95;;;8.40;;
36189;SDS011;22232;50.914;13.858;2023-03-21T07:17:31;14.07;;;8.77;;
36189;SDS011;22232;50.914;13.858;2023-03-21T07:19:59;12.90;;;8.77;;
36189;SDS011;22232;50.914;13.858;2023-03-21T07:22:27;17.30;;;10.65;;
36189;SDS011;22232;50.914;13.858;2023-03-21T07:24:55;15.95;;;10.98;;
36189;SDS011;22232;50.914;13.858;2023-03-21T07:27:36;17.42;;;11.80;;
36189;SDS011;22232;50.914;13.858;2023-03-21T07:30:07;15.50;;;10.90;;
36189;SDS011;22232;50.914;13.858;2023-03-21T07:32:36;19.08;;;11.70;;
36189;SDS011;22232;50.914;13.858;2023-03-21T07:35:07;13.65;;;10.13;;
36189;SDS011;22232;50.914;13.858;2023-03-21T07:37:38;15.25;;;10.73;;
36189;SDS011;22232;50.914;13.858;2023-03-21T07:40:07;17.98;;;11.88;;
36189;SDS011;22232;50.914;13.858;2023-03-21T07:42:37;15.32;;;10.90;;
36189;SDS011;22232;50.914;13.858;2023-03-21T07:45:07;17.02;;;11.15;;
36189;SDS011;22232;50.914;13.858;2023-03-21T07:47:35;19.00;;;11.88;;
36189;SDS011;22232;50.914;13.858;2023-03-21T07:50:03;17.23;;;11.68;;
36189;SDS011;22232;50.914;13.858;2023-03-21T07:52:31;15.75;;;10.73;;
36189;SDS011;22232;50.914;13.858;2023-03-21T07:54:58;16.05;;;10.63;;
36189;SDS011;22232;50.914;13.858;2023-03-21T07:57:26;15.85;;;10.45;;
36189;SDS011;22232;50.914;13.858;2023-03-21T07:59:53;17.25;;;10.30;;
36189;SDS011;22232;50.914;13.858;2023-03-21T08:02:21;14.07;;;10.20;;
36189;SDS011;22232;50.914;13.858;2023-03-21T08:04:49;14.60;;;9.52;;
36189;SDS011;22232;50.914;13.858;2023-03-21T08:07:17;14.60;;;9.18;;
36189;SDS011;22232;50.914;13.858;2023-03-21T08:09:44;16.45;;;9.00;;
36189;SDS011;22232;50.914;13.858;2023-03-21T08:12:12;18.42;;;10.63;;
36189;SDS011;22232;50.914;13.858;2023-03-21T08:14:39;12.30;;;8.88;;
36189;SDS011;22232;50.914;13.858;2023-03-21T08:17:07;16.00;;;10.63;;
36189;SDS011;22232;50.914;13.858;2023-03-21T08:19:35;15.40;;;9.95;;
36189;SDS011;22232;50.914;13.858;2023-03-21T08:22:03;14.27;;;9.55;;
36189;SDS011;22232;50.914;13.858;2023-03-21T08:24:32;17.85;;;11.07;;
36189;SDS011;22232;50.914;13.858;2023-03-21T08:27:00;14.18;;;9.98;;
36189;SDS011;22232;50.914;13.858;2023-03-21T08:29:28;15.88;;;9.95;;
36189;SDS011;22232;50.914;13.858;2023-03-21T08:31:55;15.40;;;9.77;;
36189;SDS011;22232;50.914;13.858;2023-03-21T08:34:24;17.08;;;9.73;;
36189;SDS011;22232;50.914;13.858;2023-03-21T08:36:52;13.32;;;9.05;;
36189;SDS011;22232;50.914;13.858;2023-03-21T08:39:20;15.02;;;10.20;;
36189;SDS011;22232;50.914;13.858;2023-03-21T08:41:48;14.70;;;9.63;;
36189;SDS011;22232;50.914;13.858;2023-03-21T08:44:16;13.38;;;9.02;;
36189;SDS011;22232;50.914;13.858;2023-03-21T08:46:43;14.57;;;9.68;;
36189;SDS011;22232;50.914;13.858;2023-03-21T08:49:11;10.57;;;7.85;;
36189;SDS011;22232;50.914;13.858;2023-03-21T08:51:38;9.52;;;7.43;;
36189;SDS011;22232;50.914;13.858;2023-03-21T08:54:07;10.50;;;7.45;;
36189;SDS011;22232;50.914;13.858;2023-03-21T08:56:42;10.63;;;6.28;;
36189;SDS011;22232;50.914;13.858;2023-03-21T08:59:10;9.50;;;6.80;;
36189;SDS011;22232;50.914;13.858;2023-03-21T09:01:37;7.97;;;6.20;;
36189;SDS011;22232;50.914;13.858;2023-03-21T09:04:05;7.55;;;5.65;;
36189;SDS011;22232;50.914;13.858;2023-03-21T09:06:37;8.95;;;5.60;;
36189;SDS011;22232;50.914;13.858;2023-03-21T09:09:11;10.30;;;5.50;;
36189;SDS011;22232;50.914;13.858;2023-03-21T09:11:39;6.30;;;4.72;;
36189;SDS011;22232;50.914;13.858;2023-03-21T09:14:07;6.20;;;4.55;;
36189;SDS011;22232;50.914;13.858;2023-03-21T09:16:35;6.35;;;4.60;;
36189;SDS011;22232;50.914;13.858;2023-03-21T09:19:03;5.80;;;4.43;;
36189;SDS011;22232;50.914;13.858;2023-03-21T09:21:30;4.78;;;3.83;;
36189;SDS011;22232;50.914;13.858;2023-03-21T09:23:58;5.63;;;4.50;;
36189;SDS011;22232;50.914;13.858;2023-03-21T09:26:26;4.80;;;3.95;;
36189;SDS011;22232;50.914;13.858;2023-03-21T09:28:54;5.65;;;4.03;;
36189;SDS011;22232;50.914;13.858;2023-03-21T09:31:22;4.40;;;3.90;;
36189;SDS011;22232;50.914;13.858;2023-03-21T09:33:51;6.80;;;3.92;;
36189;SDS011;22232;50.914;13.858;2023-03-21T09:36:19;5.20;;;4.03;;
36189;SDS011;22232;50.914;13.858;2023-03-21T09:38:48;5.22;;;4.70;;
36189;SDS011;22232;50.914;13.858;2023-03-21T09:46:56;5.28;;;4.78;;
36189;SDS011;22232;50.914;13.858;2023-03-21T09:49:37;6.53;;;5.07;;
36189;SDS011;22232;50.914;13.858;2023-03-21T09:52:31;7.03;;;5.63;;
36189;SDS011;22232;50.914;13.858;2023-03-21T09:55:25;5.88;;;4.88;;
36189;SDS011;22232;50.914;13.858;2023-03-21T10:00:48;3.53;;;3.00;;
36189;SDS011;22232;50.914;13.858;2023-03-21T10:03:24;4.28;;;2.95;;
36189;SDS011;22232;50.914;13.858;2023-03-21T10:08:28;3.65;;;2.85;;
36189;SDS011;22232;50.914;13.858;2023-03-21T10:13:38;3.60;;;2.35;;
36189;SDS011;22232;50.914;13.858;2023-03-21T10:18:42;2.35;;;2.00;;
36189;SDS011;22232;50.914;13.858;2023-03-21T10:21:17;3.22;;;1.75;;
36189;SDS011;22232;50.914;13.858;2023-03-21T10:24:13;3.35;;;2.20;;
36189;SDS011;22232;50.914;13.858;2023-03-21T10:26:43;2.47;;;1.77;;
36189;SDS011;22232;50.914;13.858;2023-03-21T10:29:13;2.35;;;2.15;;
36189;SDS011;22232;50.914;13.858;2023-03-21T10:31:43;2.30;;;1.88;;
36189;SDS011;22232;50.914;13.858;2023-03-21T10:34:17;2.22;;;1.77;;
36189;SDS011;22232;50.914;13.858;2023-03-21T10:36:46;4.57;;;2.30;;
36189;SDS011;22232;50.914;13.858;2023-03-21T10:39:17;4.60;;;1.98;;
36189;SDS011;22232;50.914;13.858;2023-03-21T10:41:46;1.92;;;1.73;;
36189;SDS011;22232;50.914;13.858;2023-03-21T10:44:18;2.80;;;2.00;;
36189;SDS011;22232;50.914;13.858;2023-03-21T10:46:53;2.38;;;2.00;;
36189;SDS011;22232;50.914;13.858;2023-03-21T10:49:23;2.53;;;1.98;;
36189;SDS011;22232;50.914;13.858;2023-03-21T10:51:56;2.83;;;2.03;;
36189;SDS011;22232;50.914;13.858;2023-03-21T10:54:28;1.80;;;1.70;;
36189;SDS011;22232;50.914;13.858;2023-03-21T10:59:35;1.90;;;1.70;;
36189;SDS011;22232;50.914;13.858;2023-03-21T11:02:06;1.83;;;1.60;;
36189;SDS011;22232;50.914;13.858;2023-03-21T11:04:47;1.85;;;1.42;;
36189;SDS011;22232;50.914;13.858;2023-03-21T11:07:16;1.77;;;1.50;;
36189;SDS011;22232;50.914;13.858;2023-03-21T11:09:55;2.08;;;1.35;;
36189;SDS011;22232;50.914;13.858;2023-03-21T11:12:29;2.47;;;1.50;;
36189;SDS011;22232;50.914;13.858;2023-03-21T11:15:13;2.33;;;1.25;;
36189;SDS011;22232;50.914;13.858;2023-03-21T11:18:00;2.60;;;1.42;;
36189;SDS011;22232;50.914;13.858;2023-03-21T11:20:47;1.33;;;1.05;;
36189;SDS011;22232;50.914;13.858;2023-03-21T11:23:19;2.42;;;1.67;;
36189;SDS011;22232;50.914;13.858;2023-03-21T11:25:49;2.10;;;1.30;;
36189;SDS011;22232;50.914;13.858;2023-03-21T11:28:19;2.33;;;1.50;;
36189;SDS011;22232;50.914;13.858;2023-03-21T11:30:55;1.48;;;1.30;;
36189;SDS011;22232;50.914;13.858;2023-03-21T11:33:36;1.38;;;1.27;;
36189;SDS011;22232;50.914;13.858;2023-03-21T11:38:43;4.93;;;4.43;;
36189;SDS011;22232;50.914;13.858;2023-03-21T11:43:51;8.02;;;5.05;;
36189;SDS011;22232;50.914;13.858;2023-03-21T11:46:24;7.95;;;5.30;;
36189;SDS011;22232;50.914;13.858;2023-03-21T11:48:57;8.13;;;5.15;;
36189;SDS011;22232;50.914;13.858;2023-03-21T11:57:05;6.55;;;5.70;;
36189;SDS011;22232;50.914;13.858;2023-03-21T12:02:50;8.10;;;5.88;;
36189;SDS011;22232;50.914;13.858;2023-03-21T12:05:31;9.52;;;5.45;;
36189;SDS011;22232;50.914;13.858;2023-03-21T12:10:40;6.50;;;5.43;;
36189;SDS011;22232;50.914;13.858;2023-03-21T12:13:13;7.88;;;5.22;;
36189;SDS011;22232;50.914;13.858;2023-03-21T12:25:08;8.48;;;5.13;;
36189;SDS011;22232;50.914;13.858;2023-03-21T12:32:54;6.43;;;4.40;;
36189;SDS011;22232;50.914;13.858;2023-03-21T12:35:41;9.18;;;4.70;;
36189;SDS011;22232;50.914;13.858;2023-03-21T12:38:16;5.28;;;4.60;;
36189;SDS011;22232;50.914;13.858;2023-03-21T12:46:49;7.75;;;4.70;;
36189;SDS011;22232;50.914;13.858;2023-03-21T12:49:40;9.13;;;5.03;;
36189;SDS011;22232;50.914;13.858;2023-03-21T12:52:11;5.68;;;4.30;;
36189;SDS011;22232;50.914;13.858;2023-03-21T12:57:16;5.85;;;4.40;;
36189;SDS011;22232;50.914;13.858;2023-03-21T13:02:29;5.95;;;4.00;;
36189;SDS011;22232;50.914;13.858;2023-03-21T13:07:54;7.35;;;4.07;;
36189;SDS011;22232;50.914;13.858;2023-03-21T13:10:33;5.32;;;3.92;;
36189;SDS011;22232;50.914;13.858;2023-03-21T13:13:11;6.47;;;4.03;;
36189;SDS011;22232;50.914;13.858;2023-03-21T13:16:03;5.03;;;3.72;;
36189;SDS011;22232;50.914;13.858;2023-03-21T13:24:04;5.32;;;4.35;;
36189;SDS011;22232;50.914;13.858;2023-03-21T13:26:47;4.30;;;3.78;;
36189;SDS011;22232;50.914;13.858;2023-03-21T13:29:21;6.63;;;4.53;;
36189;SDS011;22232;50.914;13.858;2023-03-21T13:31:54;6.38;;;4.47;;
36189;SDS011;22232;50.914;13.858;2023-03-21T13:34:34;8.07;;;4.80;;
36189;SDS011;22232;50.914;13.858;2023-03-21T13:37:09;4.78;;;4.05;;
36189;SDS011;22232;50.914;13.858;2023-03-21T13:39:45;5.93;;;4.10;;
36189;SDS011;22232;50.914;13.858;2023-03-21T13:42:23;8.70;;;5.60;;
36189;SDS011;22232;50.914;13.858;2023-03-21T13:44:59;8.90;;;5.43;;
36189;SDS011;22232;50.914;13.858;2023-03-21T13:47:37;9.00;;;5.95;;
36189;SDS011;22232;50.914;13.858;2023-03-21T13:50:20;8.23;;;5.22;;
36189;SDS011;22232;50.914;13.858;2023-03-21T13:53:36;7.93;;;5.28;;
36189;SDS011;22232;50.914;13.858;2023-03-21T13:55:41;7.60;;;5.47;;
36189;SDS011;22232;50.914;13.858;2023-03-21T14:01:11;7.53;;;5.47;;
36189;SDS011;22232;50.914;13.858;2023-03-21T14:03:39;7.93;;;5.60;;
36189;SDS011;22232;50.914;13.858;2023-03-21T14:06:08;6.47;;;4.95;;
36189;SDS011;22232;50.914;13.858;2023-03-21T14:08:37;7.05;;;5.55;;
36189;SDS011;22232;50.914;13.858;2023-03-21T14:11:11;8.15;;;5.50;;
36189;SDS011;22232;50.914;13.858;2023-03-21T14:13:42;7.25;;;4.82;;
36189;SDS011;22232;50.914;13.858;2023-03-21T14:16:17;6.43;;;4.70;;
36189;SDS011;22232;50.914;13.858;2023-03-21T14:18:50;6.90;;;4.60;;
36189;SDS011;22232;50.914;13.858;2023-03-21T14:21:23;5.03;;;4.10;;
36189;SDS011;22232;50.914;13.858;2023-03-21T14:24:11;5.88;;;4.70;;
36189;SDS011;22232;50.914;13.858;2023-03-21T14:26:41;6.55;;;4.13;;
36189;SDS011;22232;50.914;13.858;2023-03-21T14:31:59;5.30;;;4.15;;
36189;SDS011;22232;50.914;13.858;2023-03-21T14:34:28;7.63;;;4.47;;
36189;SDS011;22232;50.914;13.858;2023-03-21T14:36:59;6.13;;;4.43;;
36189;SDS011;22232;50.914;13.858;2023-03-21T14:39:28;5.38;;;4.10;;
36189;SDS011;22232;50.914;13.858;2023-03-21T14:42:04;5.07;;;4.40;;
36189;SDS011;22232;50.914;13.858;2023-03-21T14:44:39;8.27;;;4.07;;
36189;SDS011;22232;50.914;13.858;2023-03-21T14:47:23;5.45;;;4.20;;
36189;SDS011;22232;50.914;13.858;2023-03-21T14:49:52;5.95;;;4.13;;
36189;SDS011;22232;50.914;13.858;2023-03-21T14:52:30;4.47;;;3.83;;
36189;SDS011;22232;50.914;13.858;2023-03-21T14:54:59;4.93;;;3.35;;
36189;SDS011;22232;50.914;13.858;2023-03-21T14:57:29;3.88;;;3.33;;
36189;SDS011;22232;50.914;13.858;2023-03-21T14:59:59;5.72;;;3.70;;
36189;SDS011;22232;50.914;13.858;2023-03-21T15:02:37;4.20;;;3.67;;
36189;SDS011;22232;50.914;13.858;2023-03-21T15:05:14;6.32;;;3.88;;
36189;SDS011;22232;50.914;13.858;2023-03-21T15:07:44;5.03;;;3.88;;
36189;SDS011;22232;50.914;13.858;2023-03-21T15:10:20;5.80;;;4.07;;
36189;SDS011;22232;50.914;13.858;2023-03-21T15:12:51;5.22;;;3.70;;
36189;SDS011;22232;50.914;13.858;2023-03-21T15:15:24;5.10;;;3.60;;
36189;SDS011;22232;50.914;13.858;2023-03-21T15:17:54;4.50;;;3.05;;
36189;SDS011;22232;50.914;13.858;2023-03-21T15:20:27;5.13;;;3.33;;
36189;SDS011;22232;50.914;13.858;2023-03-21T15:23:01;3.22;;;2.60;;
36189;SDS011;22232;50.914;13.858;2023-03-21T15:25:33;2.75;;;2.30;;
36189;SDS011;22232;50.914;13.858;2023-03-21T15:28:02;3.35;;;2.05;;
36189;SDS011;22232;50.914;13.858;2023-03-21T15:30:32;3.67;;;1.55;;
36189;SDS011;22232;50.914;13.858;2023-03-21T15:33:04;4.75;;;1.40;;
36189;SDS011;22232;50.914;13.858;2023-03-21T15:35:38;3.25;;;1.38;;
36189;SDS011;22232;50.914;13.858;2023-03-21T15:38:19;5.93;;;1.80;;
36189;SDS011;22232;50.914;13.858;2023-03-21T15:40:49;3.63;;;1.40;;
36189;SDS011;22232;50.914;13.858;2023-03-21T15:43:18;2.78;;;1.45;;
36189;SDS011;22232;50.914;13.858;2023-03-21T15:45:47;3.67;;;1.70;;
36189;SDS011;22232;50.914;13.858;2023-03-21T15:48:20;3.42;;;2.17;;
36189;SDS011;22232;50.914;13.858;2023-03-21T15:50:56;2.63;;;1.40;;
36189;SDS011;22232;50.914;13.858;2023-03-21T15:53:30;2.92;;;1.40;;
36189;SDS011;22232;50.914;13.858;2023-03-21T15:55:59;14.25;;;8.73;;
36189;SDS011;22232;50.914;13.858;2023-03-21T15:58:44;11.57;;;6.03;;
36189;SDS011;22232;50.914;13.858;2023-03-21T16:01:18;5.53;;;4.25;;
36189;SDS011;22232;50.914;13.858;2023-03-21T16:03:54;5.95;;;3.80;;
36189;SDS011;22232;50.914;13.858;2023-03-21T16:06:28;2.60;;;1.80;;
36189;SDS011;22232;50.914;13.858;2023-03-21T16:09:12;2.75;;;1.98;;
36189;SDS011;22232;50.914;13.858;2023-03-21T16:11:50;3.05;;;1.83;;
36189;SDS011;22232;50.914;13.858;2023-03-21T16:14:23;5.90;;;2.17;;
36189;SDS011;22232;50.914;13.858;2023-03-21T16:16:54;3.70;;;1.77;;
36189;SDS011;22232;50.914;13.858;2023-03-21T16:19:23;4.65;;;1.67;;
36189;SDS011;22232;50.914;13.858;2023-03-21T16:21:50;2.50;;;1.58;;
36189;SDS011;22232;50.914;13.858;2023-03-21T16:24:19;4.35;;;1.77;;
36189;SDS011;22232;50.914;13.858;2023-03-21T16:26:47;3.00;;;1.90;;
36189;SDS011;22232;50.914;13.858;2023-03-21T16:29:18;2.88;;;1.50;;
36189;SDS011;22232;50.914;13.858;2023-03-21T16:31:46;2.97;;;1.70;;
36189;SDS011;22232;50.914;13.858;2023-03-21T16:34:15;2.40;;;1.50;;
36189;SDS011;22232;50.914;13.858;2023-03-21T16:36:42;2.38;;;1.52;;
36189;SDS011;22232;50.914;13.858;2023-03-21T16:39:20;2.63;;;1.50;;
36189;SDS011;22232;50.914;13.858;2023-03-21T16:41:49;3.75;;;1.70;;
36189;SDS011;22232;50.914;13.858;2023-03-21T16:44:17;2.83;;;1.70;;
36189;SDS011;22232;50.914;13.858;2023-03-21T16:46:46;1.73;;;1.60;;
36189;SDS011;22232;50.914;13.858;2023-03-21T16:49:21;3.47;;;1.60;;
36189;SDS011;22232;50.914;13.858;2023-03-21T16:51:51;5.15;;;1.75;;
36189;SDS011;22232;50.914;13.858;2023-03-21T16:54:20;4.85;;;2.15;;
36189;SDS011;22232;50.914;13.858;2023-03-21T16:56:49;3.22;;;1.70;;
36189;SDS011;22232;50.914;13.858;2023-03-21T16:59:19;3.22;;;1.92;;